EDT,Max TemperatureF,Mean TemperatureF,Min TemperatureF,Max Dew PointF,MeanDew PointF,Min DewpointF,Max Humidity, Mean Humidity, Min Humidity, Max Sea Level PressureIn, Mean Sea Level PressureIn, Min Sea Level PressureIn, Max VisibilityMiles, Mean VisibilityMiles, Min VisibilityMiles, Max Wind SpeedMPH, Mean Wind SpeedMPH, Max Gust SpeedMPH,PrecipitationIn, CloudCover, Events, WindDirDegrees
2012-3-1,85,81,76,68,67,66,74,65,55,30.13,30.07,30.03,10,10,10,12,6,16,0.00,1,,121
2012-3-2,86,81,76,70,69,67,76,69,61,30.06,30.02,29.99,10,10,10,14,8,20,0.00,1,,141
2012-3-3,86,82,77,73,70,68,79,70,61,30.01,29.94,29.89,10,10,9,14,9,22,0.00,1,,155
2012-3-4,86,75,63,73,62,39,85,64,42,30.20,30.02,29.90,10,9,2,28,14,37,0.04,4,Rain,303
2012-3-5,77,69,60,57,48,40,61,51,40,30.31,30.26,30.18,10,10,10,21,15,30,0.00,0,,34
2012-3-6,78,72,66,59,56,52,73,58,43,30.32,30.28,30.24,10,10,10,25,17,36,0.00,4,,59
2012-3-7,81,77,72,68,65,61,84,73,61,30.28,30.24,30.20,10,10,6,24,16,35,0.05,6,Rain,75
2012-3-8,83,79,74,68,67,66,79,69,58,30.22,30.16,30.12,10,10,10,16,10,24,T,2,Rain,93
2012-3-9,84,80,75,69,67,66,79,69,59,30.17,30.12,30.08,10,10,10,13,8,22,T,3,,99
2012-3-10,84,78,72,70,68,64,93,74,55,30.19,30.13,30.08,10,10,9,15,8,18,0.00,3,,55
2012-3-11,84,78,72,68,64,37,79,69,58,30.41,30.19,30.13,10,10,2,14,11,23,0.09,3,Rain,92
2012-3-12,82,77,72,68,64,62,84,69,54,30.24,30.18,30.14,10,10,2,18,14,30,0.04,4,Rain,82
2012-3-13,83,78,73,64,62,59,69,58,47,30.20,30.17,30.13,10,10,10,14,11,20,0.00,1,,73
2012-3-14,82,77,72,67,63,59,84,66,47,30.19,30.14,30.10,10,10,10,18,12,24,0.01,2,,52
2012-3-15,84,77,70,70,66,64,84,70,55,30.17,30.13,30.08,10,9,2,18,11,25,0.25,4,Rain-Thunderstorm,72
2012-3-16,83,78,73,66,65,63,79,69,58,30.19,30.14,30.09,10,10,10,15,10,20,0.00,1,,82
2012-3-17,82,78,73,68,64,61,73,62,51,30.20,30.16,30.11,10,10,10,16,10,22,0.00,3,,67
2012-3-18,84,79,73,64,62,59,69,58,47,30.20,30.15,30.11,10,10,10,15,9,21,0.01,1,,68
2012-3-19,83,78,73,67,62,60,79,63,47,30.15,30.09,30.04,10,10,8,16,10,22,T,2,Rain,88
2012-3-20,83,79,74,64,62,60,69,60,51,30.08,30.03,29.99,10,10,10,15,11,23,0.00,1,,95
2012-3-21,84,80,75,70,67,64,76,68,57,30.11,30.05,30.01,10,10,10,16,11,25,0.00,3,,104
2012-3-22,83,77,70,71,68,66,93,78,62,30.14,30.08,30.05,10,8,1,20,10,30,0.92,4,Rain,116
2012-3-23,84,80,75,67,64,61,74,63,51,30.11,30.06,30.03,10,10,10,12,7,20,0.00,2,,101
2012-3-24,84,79,74,66,64,62,69,60,51,30.06,30.01,29.96,10,10,10,9,6,17,0.00,1,,121
2012-3-25,86,81,75,70,68,66,79,69,58,30.00,29.94,29.88,10,10,10,14,7,23,T,2,,234
2012-3-26,82,77,72,65,60,57,73,59,45,30.01,29.96,29.92,10,10,10,15,8,20,0.00,0,,330
2012-3-27,82,76,69,66,62,60,73,64,54,30.12,30.06,29.98,10,10,10,15,9,21,0.00,2,,60
2012-3-28,83,79,75,64,61,58,69,58,47,30.14,30.09,30.06,10,10,10,18,11,28,T,3,,92
2012-3-29,83,78,73,64,61,59,64,58,51,30.08,30.03,29.99,10,10,10,13,8,21,0.00,1,,101
2012-3-30,85,80,74,65,63,61,69,59,48,30.07,30.02,29.99,10,10,10,12,7,17,0.00,1,,116
2012-3-31,87,81,75,71,69,66,82,69,55,30.02,29.98,29.93,10,10,9,12,7,17,0.00,1,,190